createdAt,value
2022-11-25T00:01:09.986Z,5.95
2022-11-25T00:03:36.738Z,5.94
2022-11-25T00:06:13.429Z,6.04
2022-11-25T00:08:41.610Z,6.03
2022-11-25T00:11:08.948Z,5.79
2022-11-25T00:13:36.257Z,5.95
2022-11-25T00:16:07.999Z,5.79
2022-11-25T00:18:34.876Z,6.03
2022-11-25T00:21:12.467Z,5.87
2022-11-25T00:23:39.074Z,5.94
2022-11-25T00:26:10.250Z,5.71
2022-11-25T00:28:38.404Z,6.20
2022-11-25T00:31:09.473Z,5.96
2022-11-25T00:33:36.356Z,6.06
2022-11-25T00:36:04.315Z,5.98
2022-11-25T00:38:30.781Z,6.02
2022-11-25T00:41:15.855Z,6.51
2022-11-25T00:44:00.990Z,6.19
2022-11-25T00:46:27.459Z,6.38
2022-11-25T00:48:53.912Z,6.28
2022-11-25T00:51:20.340Z,6.37
2022-11-25T00:53:46.763Z,6.16
2022-11-25T00:56:13.206Z,6.45
2022-11-25T00:58:40.570Z,6.43
2022-11-25T01:01:07.079Z,6.37
2022-11-25T01:03:34.941Z,6.62
2022-11-25T01:06:02.172Z,6.44
2022-11-25T01:08:33.323Z,6.56
2022-11-25T01:11:00.734Z,6.28
2022-11-25T01:13:27.303Z,6.50
2022-11-25T01:15:53.788Z,6.41
2022-11-25T01:18:20.340Z,6.30
2022-11-25T01:20:46.807Z,6.11
2022-11-25T01:23:13.290Z,6.27
2022-11-25T01:25:40.268Z,6.22
2022-11-25T01:28:06.711Z,6.38
2022-11-25T01:30:35.919Z,6.03
2022-11-25T01:33:06.231Z,6.21
2022-11-25T01:35:32.693Z,5.98
2022-11-25T01:37:59.110Z,6.06
2022-11-25T01:40:25.584Z,6.15
2022-11-25T01:42:52.017Z,6.19
2022-11-25T01:45:28.374Z,6.37
2022-11-25T01:47:58.796Z,6.28
2022-11-25T01:50:26.479Z,6.61
2022-11-25T01:52:53.929Z,6.92
2022-11-25T01:55:27.075Z,6.86
2022-11-25T01:58:17.851Z,6.56
2022-11-25T02:00:51.463Z,6.72
2022-11-25T02:03:26.048Z,6.67
2022-11-25T02:06:17.737Z,6.80
2022-11-25T02:08:48.533Z,6.64
2022-11-25T02:11:16.182Z,6.77
2022-11-25T02:13:43.521Z,6.76
2022-11-25T02:16:09.987Z,6.27
2022-11-25T02:18:36.462Z,6.26
2022-11-25T02:21:02.955Z,6.52
2022-11-25T02:23:36.187Z,6.75
2022-11-25T02:26:02.972Z,6.38
2022-11-25T02:28:31.547Z,6.66
2022-11-25T02:30:58.588Z,6.47
2022-11-25T02:33:25.918Z,6.21
2022-11-25T02:35:59.357Z,6.49
2022-11-25T02:38:46.018Z,6.55
2022-11-25T02:41:21.508Z,6.49
2022-11-25T02:43:48.331Z,6.32
2022-11-25T02:46:21.804Z,6.64
2022-11-25T02:51:35.699Z,6.47
2022-11-25T02:54:02.329Z,6.48
2022-11-25T02:56:31.689Z,6.41
2022-11-25T02:58:58.645Z,6.39
2022-11-25T03:01:25.219Z,6.11
2022-11-25T03:03:51.742Z,6.09
2022-11-25T03:06:18.512Z,6.14
2022-11-25T03:08:45.026Z,6.17
2022-11-25T03:11:11.493Z,6.33
2022-11-25T03:13:37.947Z,6.36
2022-11-25T03:16:04.827Z,6.21
2022-11-25T03:18:31.330Z,6.08
2022-11-25T03:20:57.776Z,6.44
2022-11-25T03:23:24.803Z,6.10
2022-11-25T03:25:51.274Z,6.01
2022-11-25T03:28:17.740Z,6.14
2022-11-25T03:30:44.320Z,5.81
2022-11-25T03:33:11.048Z,5.53
2022-11-25T03:35:37.549Z,5.63
2022-11-25T03:38:04.119Z,5.73
2022-11-25T03:40:30.557Z,5.76
2022-11-25T03:42:57.008Z,5.96
2022-11-25T03:45:23.438Z,6.00
2022-11-25T03:47:49.962Z,5.92
2022-11-25T03:50:16.728Z,5.82
2022-11-25T03:52:43.224Z,5.75
2022-11-25T03:55:10.183Z,5.66
2022-11-25T03:57:36.670Z,5.91
2022-11-25T04:00:04.627Z,5.78
2022-11-25T04:02:31.127Z,5.95
2022-11-25T04:04:57.819Z,5.75
2022-11-25T04:07:24.312Z,5.84
2022-11-25T04:09:50.832Z,5.67
2022-11-25T04:12:36.034Z,5.51
2022-11-25T04:15:03.034Z,5.54
2022-11-25T04:17:29.495Z,5.72
2022-11-25T04:19:55.944Z,5.69
2022-11-25T04:22:22.410Z,5.63
2022-11-25T04:24:48.896Z,5.67
2022-11-25T04:27:15.350Z,5.72
2022-11-25T04:29:41.780Z,5.59
2022-11-25T04:32:08.230Z,5.77
2022-11-25T04:34:34.998Z,5.73
2022-11-25T04:37:01.592Z,6.03
2022-11-25T04:39:28.020Z,5.83
2022-11-25T04:42:17.343Z,5.67
2022-11-25T04:44:55.903Z,5.70
2022-11-25T04:47:30.382Z,5.79
2022-11-25T04:49:56.812Z,5.33
2022-11-25T04:52:23.338Z,5.58
2022-11-25T04:54:49.800Z,5.79
2022-11-25T04:57:16.806Z,5.88
2022-11-25T04:59:43.744Z,5.64
2022-11-25T05:02:17.855Z,5.83
2022-11-25T05:04:45.742Z,5.52
2022-11-25T05:07:13.255Z,5.77
2022-11-25T05:09:40.036Z,5.78
2022-11-25T05:12:07.976Z,5.91
2022-11-25T05:14:35.894Z,6.01
2022-11-25T05:17:03.902Z,5.70
2022-11-25T05:19:30.437Z,5.61
2022-11-25T05:21:56.870Z,5.74
2022-11-25T05:24:24.333Z,5.83
2022-11-25T05:26:50.808Z,5.81
2022-11-25T05:29:17.364Z,5.88
2022-11-25T05:31:43.808Z,6.04
2022-11-25T05:34:10.312Z,6.00
2022-11-25T05:36:37.011Z,5.53
2022-11-25T05:39:04.172Z,5.92
2022-11-25T05:41:30.652Z,5.51
2022-11-25T05:43:57.214Z,5.52
2022-11-25T05:46:23.694Z,5.72
2022-11-25T05:48:53.655Z,5.65
2022-11-25T05:51:20.170Z,5.26
2022-11-25T05:53:46.661Z,5.57
2022-11-25T05:56:13.111Z,5.43
2022-11-25T05:58:39.643Z,5.43
2022-11-25T06:01:10.835Z,5.27
2022-11-25T06:03:37.751Z,5.62
2022-11-25T06:06:05.398Z,5.54
2022-11-25T06:08:32.358Z,5.89
2022-11-25T06:10:58.814Z,5.68
2022-11-25T06:13:25.772Z,6.12
2022-11-25T06:15:52.285Z,6.41
2022-11-25T06:18:19.169Z,6.29
2022-11-25T06:20:45.932Z,6.26
2022-11-25T06:23:12.362Z,6.09
2022-11-25T06:25:38.835Z,6.12
2022-11-25T06:28:12.683Z,6.25
2022-11-25T06:30:39.875Z,6.34
2022-11-25T06:33:06.318Z,6.41
2022-11-25T06:35:32.761Z,6.48
2022-11-25T06:37:59.774Z,6.30
2022-11-25T06:40:26.261Z,6.60
2022-11-25T06:42:52.774Z,6.71
2022-11-25T06:45:19.302Z,6.32
2022-11-25T06:47:45.755Z,6.15
2022-11-25T06:50:12.287Z,6.41
2022-11-25T06:52:38.755Z,6.55
2022-11-25T06:55:05.577Z,6.26
2022-11-25T06:57:32.131Z,6.00
2022-11-25T06:59:58.656Z,6.34
2022-11-25T07:02:25.103Z,6.69
2022-11-25T07:04:51.656Z,6.06
2022-11-25T07:07:18.208Z,6.64
2022-11-25T07:09:44.839Z,6.67
2022-11-25T07:12:12.410Z,6.55
2022-11-25T07:14:39.206Z,6.21
2022-11-25T07:17:11.530Z,6.35
2022-11-25T07:19:38.613Z,6.51
2022-11-25T07:22:05.087Z,6.52
2022-11-25T07:24:31.563Z,6.60
2022-11-25T07:26:58.050Z,6.62
2022-11-25T07:32:11.355Z,6.29
2022-11-25T07:34:38.164Z,7.07
2022-11-25T07:37:04.600Z,6.58
2022-11-25T07:39:31.138Z,6.54
2022-11-25T07:41:57.559Z,6.91
2022-11-25T07:44:24.012Z,7.16
2022-11-25T07:46:51.399Z,7.26
2022-11-25T07:49:20.949Z,6.80
2022-11-25T07:51:48.924Z,7.08
2022-11-25T07:54:15.540Z,7.12
2022-11-25T07:56:44.861Z,7.07
2022-11-25T07:59:21.775Z,7.15
2022-11-25T08:01:55.523Z,6.47
2022-11-25T08:04:22.636Z,6.48
2022-11-25T08:06:51.419Z,7.06
2022-11-25T08:09:20.863Z,6.83
2022-11-25T08:11:48.312Z,7.03
2022-11-25T08:14:15.465Z,6.95
2022-11-25T08:16:42.345Z,6.64
2022-11-25T08:19:11.929Z,6.67
2022-11-25T08:21:38.433Z,6.91
2022-11-25T08:24:05.383Z,6.98
2022-11-25T08:26:36.280Z,6.46
2022-11-25T08:29:04.171Z,6.37
2022-11-25T08:31:33.702Z,6.40
2022-11-25T08:34:00.560Z,6.86
2022-11-25T08:36:28.055Z,6.93
2022-11-25T08:38:57.794Z,7.05
2022-11-25T08:41:27.101Z,6.94
2022-11-25T08:43:53.576Z,6.86
2022-11-25T08:46:22.605Z,6.51
2022-11-25T08:48:49.159Z,6.94
2022-11-25T08:51:18.417Z,6.80
2022-11-25T08:53:45.846Z,6.80
2022-11-25T08:56:12.654Z,6.67
2022-11-25T08:58:39.430Z,6.78
2022-11-25T09:01:07.482Z,6.78
2022-11-25T09:03:43.151Z,6.71
2022-11-25T09:06:10.546Z,6.86
2022-11-25T09:08:37.769Z,7.15
2022-11-25T09:11:04.453Z,7.52
2022-11-25T09:13:30.988Z,7.36
2022-11-25T09:15:57.994Z,7.32
2022-11-25T09:18:26.287Z,7.42
2022-11-25T09:20:54.003Z,7.58
2022-11-25T09:23:20.802Z,7.16
2022-11-25T09:25:54.805Z,7.54
2022-11-25T09:28:22.202Z,7.56
2022-11-25T09:30:49.032Z,7.98
2022-11-25T09:33:15.708Z,7.97
2022-11-25T09:35:42.483Z,8.16
2022-11-25T09:38:09.066Z,7.92
2022-11-25T09:40:53.880Z,8.39
2022-11-25T09:44:11.927Z,8.24
2022-11-25T09:46:47.264Z,8.35
2022-11-25T09:49:32.599Z,8.35
2022-11-25T09:52:37.075Z,8.79
2022-11-25T09:55:17.016Z,8.61
2022-11-25T09:57:49.436Z,8.25
2022-11-25T10:00:19.776Z,8.47
2022-11-25T10:03:01.656Z,8.55
2022-11-25T10:05:34.130Z,8.71
2022-11-25T10:08:07.612Z,8.66
2022-11-25T10:10:46.224Z,8.74
2022-11-25T10:13:21.166Z,8.78
2022-11-25T10:15:50.280Z,8.80
2022-11-25T10:18:34.947Z,8.67
2022-11-25T10:21:01.431Z,8.76
2022-11-25T10:23:32.456Z,8.74
2022-11-25T10:26:10.615Z,8.99
2022-11-25T10:28:38.171Z,8.60
2022-11-25T10:31:11.373Z,8.71
2022-11-25T10:33:41.209Z,8.87
2022-11-25T10:36:11.539Z,9.03
2022-11-25T10:38:45.385Z,9.08
2022-11-25T10:41:16.439Z,8.81
2022-11-25T10:43:43.576Z,8.98
2022-11-25T10:47:11.527Z,8.91
2022-11-25T10:49:31.102Z,8.87
2022-11-25T10:51:57.921Z,8.79
2022-11-25T10:54:27.829Z,9.09
2022-11-25T10:56:57.765Z,8.83
2022-11-25T10:59:25.600Z,8.94
2022-11-25T11:01:53.428Z,8.99
2022-11-25T11:04:20.500Z,9.00
2022-11-25T11:06:49.742Z,9.42
2022-11-25T11:09:33.296Z,9.25
2022-11-25T11:12:27.242Z,9.29
2022-11-25T11:14:55.011Z,9.19
2022-11-25T11:17:34.753Z,9.33
2022-11-25T11:20:04.758Z,9.25
2022-11-25T11:22:32.143Z,9.55
2022-11-25T11:25:29.282Z,9.67
2022-11-25T11:27:56.003Z,9.50
2022-11-25T11:30:28.556Z,9.45
2022-11-25T11:33:02.260Z,9.30
2022-11-25T11:35:53.964Z,9.69
2022-11-25T11:38:27.924Z,9.39
2022-11-25T11:41:00.682Z,9.34
2022-11-25T11:43:48.370Z,9.36
2022-11-25T11:46:37.574Z,9.08
2022-11-25T11:49:41.645Z,8.83
2022-11-25T11:52:43.600Z,9.29
2022-11-25T11:55:45.329Z,9.30
2022-11-25T11:58:21.468Z,9.66
2022-11-25T12:01:07.637Z,9.66
2022-11-25T12:03:39.976Z,9.59
2022-11-25T12:06:06.755Z,9.36
2022-11-25T12:08:51.882Z,9.38
2022-11-25T12:11:23.004Z,9.50
2022-11-25T12:14:11.539Z,9.46
2022-11-25T12:16:43.188Z,9.39
2022-11-25T12:19:31.134Z,9.70
2022-11-25T12:22:08.822Z,9.93
2022-11-25T12:24:58.770Z,9.76
2022-11-25T12:27:47.384Z,9.69
2022-11-25T12:30:19.685Z,9.68
2022-11-25T12:33:04.590Z,9.64
2022-11-25T12:35:37.584Z,9.62
2022-11-25T12:38:18.156Z,9.83
2022-11-25T12:40:54.407Z,9.86
2022-11-25T12:43:39.539Z,9.82
2022-11-25T12:46:18.043Z,10.02
2022-11-25T12:48:44.893Z,9.98
2022-11-25T12:51:20.498Z,10.31
2022-11-25T12:54:17.907Z,10.34
2022-11-25T12:57:07.089Z,10.39
2022-11-25T13:00:06.046Z,10.26
2022-11-25T13:02:54.018Z,10.43
2022-11-25T13:05:54.119Z,10.17
2022-11-25T13:08:38.821Z,10.30
2022-11-25T13:11:11.645Z,10.17
2022-11-25T13:13:47.584Z,10.38
2022-11-25T13:16:14.909Z,10.59
2022-11-25T13:18:44.437Z,10.53
2022-11-25T13:21:13.351Z,10.29
2022-11-25T13:23:52.917Z,10.20
2022-11-25T13:26:28.700Z,10.47
2022-11-25T13:28:56.247Z,10.12
2022-11-25T13:31:25.181Z,10.23
2022-11-25T13:34:30.284Z,10.10
2022-11-25T13:36:58.482Z,9.73
2022-11-25T13:39:33.482Z,9.91
2022-11-25T13:42:10.982Z,9.91
2022-11-25T13:44:50.385Z,10.52
2022-11-25T13:47:35.620Z,9.99
2022-11-25T13:50:04.656Z,9.86
2022-11-25T13:52:35.345Z,10.33
2022-11-25T13:55:29.140Z,10.18
2022-11-25T13:58:10.971Z,10.27
2022-11-25T14:00:37.395Z,10.18
2022-11-25T14:03:19.197Z,10.53
2022-11-25T14:05:57.827Z,10.26
2022-11-25T14:08:43.547Z,10.20
2022-11-25T14:11:09.957Z,10.36
2022-11-25T14:13:58.615Z,10.68
2022-11-25T14:16:43.821Z,10.77
2022-11-25T14:19:50.657Z,10.48
2022-11-25T14:22:35.723Z,10.64
2022-11-25T14:25:19.833Z,10.93
2022-11-25T14:27:49.087Z,10.70
2022-11-25T14:30:17.068Z,10.43
2022-11-25T14:32:57.619Z,10.40
2022-11-25T14:35:32.725Z,10.26
2022-11-25T14:38:44.576Z,10.27
2022-11-25T14:41:23.968Z,10.76
2022-11-25T14:44:04.127Z,10.43
2022-11-25T14:46:30.667Z,10.49
2022-11-25T14:48:59.308Z,10.29
2022-11-25T14:51:27.693Z,10.57
2022-11-25T14:53:54.738Z,10.69
2022-11-25T14:56:24.460Z,10.93
2022-11-25T14:58:52.189Z,10.50
2022-11-25T15:01:28.499Z,10.84
2022-11-25T15:04:19.499Z,10.54
2022-11-25T15:06:57.779Z,10.46
2022-11-25T15:09:25.498Z,10.90
2022-11-25T15:12:16.839Z,10.76
2022-11-25T15:14:48.947Z,10.91
2022-11-25T15:17:28.349Z,10.58
2022-11-25T15:19:57.616Z,10.82
2022-11-25T15:22:24.738Z,10.83
2022-11-25T15:24:55.913Z,11.04
2022-11-25T15:27:28.434Z,10.90
2022-11-25T15:29:56.040Z,10.76
2022-11-25T15:32:31.568Z,10.89
2022-11-25T15:34:59.975Z,10.95
2022-11-25T15:37:27.195Z,10.93
2022-11-25T15:40:31.298Z,11.00
2022-11-25T15:42:59.941Z,11.06
2022-11-25T15:45:27.612Z,10.90
2022-11-25T15:47:54.225Z,10.99
2022-11-25T15:50:25.354Z,11.08
2022-11-25T15:52:54.496Z,11.11
2022-11-25T15:55:33.123Z,11.32
2022-11-25T15:58:11.314Z,11.41
2022-11-25T16:00:38.231Z,11.23
2022-11-25T16:03:19.120Z,11.21
2022-11-25T16:05:56.543Z,11.36
2022-11-25T16:08:30.859Z,11.29
2022-11-25T16:11:00.232Z,11.23
2022-11-25T16:13:30.542Z,11.23
2022-11-25T16:16:00.138Z,11.35
2022-11-25T16:18:41.236Z,11.30
2022-11-25T16:21:10.965Z,11.10
2022-11-25T16:23:43.018Z,11.18
2022-11-25T16:26:12.434Z,11.34
2022-11-25T16:28:49.898Z,11.10
2022-11-25T16:31:17.176Z,11.09
2022-11-25T16:33:43.689Z,11.11
2022-11-25T16:36:10.138Z,10.98
2022-11-25T16:38:36.612Z,11.11
2022-11-25T16:41:20.594Z,11.07
2022-11-25T16:43:47.071Z,11.40
2022-11-25T16:46:19.037Z,11.51
2022-11-25T16:48:46.084Z,11.57
2022-11-25T16:51:24.122Z,11.35
2022-11-25T16:53:50.932Z,11.40
2022-11-25T16:56:29.729Z,11.51
2022-11-25T16:58:57.691Z,11.48
2022-11-25T17:01:27.046Z,11.51
2022-11-25T17:03:54.601Z,11.41
2022-11-25T17:06:24.280Z,11.42
2022-11-25T17:08:51.938Z,11.16
2022-11-25T17:11:27.066Z,11.27
2022-11-25T17:13:54.403Z,11.04
2022-11-25T17:16:23.881Z,11.33
2022-11-25T17:18:52.598Z,11.19
2022-11-25T17:21:19.054Z,11.01
2022-11-25T17:23:49.175Z,11.20
2022-11-25T17:26:24.744Z,11.15
2022-11-25T17:28:58.399Z,11.27
2022-11-25T17:31:27.458Z,11.08
2022-11-25T17:33:54.063Z,11.25
2022-11-25T17:36:21.234Z,11.19
2022-11-25T17:38:48.370Z,11.15
2022-11-25T17:41:16.622Z,11.17
2022-11-25T17:43:44.468Z,11.33
2022-11-25T17:46:11.962Z,11.16
2022-11-25T17:48:39.340Z,11.06
2022-11-25T17:51:07.578Z,11.06
2022-11-25T17:53:37.880Z,11.13
2022-11-25T17:56:26.525Z,11.11
2022-11-25T17:58:53.149Z,11.20
2022-11-25T18:01:19.718Z,11.13
2022-11-25T18:03:46.332Z,11.21
2022-11-25T18:06:12.812Z,11.04
2022-11-25T18:08:39.333Z,11.25
2022-11-25T18:11:06.726Z,11.52
2022-11-25T18:13:39.695Z,11.42
2022-11-25T18:16:07.776Z,11.34
2022-11-25T18:18:34.497Z,11.33
2022-11-25T18:21:02.438Z,11.21
2022-11-25T18:23:28.918Z,11.22
2022-11-25T18:25:56.734Z,11.18
2022-11-25T18:28:27.005Z,11.24
2022-11-25T18:30:55.880Z,11.19
2022-11-25T18:33:22.462Z,11.20
2022-11-25T18:35:48.874Z,11.30
2022-11-25T18:38:15.583Z,11.31
2022-11-25T18:40:46.395Z,11.23
2022-11-25T18:43:18.215Z,11.19
2022-11-25T18:45:45.027Z,10.99
2022-11-25T18:48:15.240Z,10.95
2022-11-25T18:50:42.410Z,10.58
2022-11-25T18:53:08.855Z,10.64
2022-11-25T18:55:35.404Z,10.85
2022-11-25T18:58:02.589Z,10.90
2022-11-25T19:00:32.662Z,10.78
2022-11-25T19:02:59.861Z,10.97
2022-11-25T19:05:30.121Z,11.03
2022-11-25T19:07:57.022Z,11.12
2022-11-25T19:10:32.051Z,11.14
2022-11-25T19:13:01.581Z,11.02
2022-11-25T19:15:28.205Z,11.21
2022-11-25T19:18:00.780Z,11.06
2022-11-25T19:20:28.555Z,11.00
2022-11-25T19:23:00.303Z,10.74
2022-11-25T19:25:27.307Z,11.04
2022-11-25T19:27:56.789Z,10.74
2022-11-25T19:30:26.181Z,10.82
2022-11-25T19:32:54.865Z,10.69
2022-11-25T19:35:33.659Z,10.75
2022-11-25T19:38:00.128Z,10.78
2022-11-25T19:40:26.661Z,10.74
2022-11-25T19:42:53.140Z,10.91
2022-11-25T19:45:20.743Z,11.20
2022-11-25T19:47:49.943Z,11.17
2022-11-25T19:50:22.537Z,11.34
2022-11-25T19:52:49.881Z,11.09
2022-11-25T19:55:24.667Z,11.23
2022-11-25T19:57:51.495Z,11.32
2022-11-25T20:00:19.630Z,11.02
2022-11-25T20:02:46.939Z,10.93
2022-11-25T20:05:19.800Z,10.89
2022-11-25T20:07:47.130Z,11.26
2022-11-25T20:10:40.106Z,11.04
2022-11-25T20:13:06.671Z,11.31
2022-11-25T20:15:33.127Z,11.35
2022-11-25T20:18:00.776Z,11.27
2022-11-25T20:20:28.927Z,11.15
2022-11-25T20:22:59.645Z,11.35
2022-11-25T20:25:26.758Z,11.25
2022-11-25T20:27:53.832Z,11.42
2022-11-25T20:30:25.909Z,11.49
2022-11-25T20:32:52.504Z,11.17
2022-11-25T20:35:19.415Z,11.23
2022-11-25T20:37:53.980Z,11.35
2022-11-25T20:40:23.748Z,11.46
2022-11-25T20:42:50.582Z,11.51
2022-11-25T20:45:22.074Z,11.57
2022-11-25T20:47:50.910Z,11.61
2022-11-25T20:50:19.148Z,11.55
2022-11-25T20:52:46.938Z,11.42
2022-11-25T20:55:24.879Z,11.72
2022-11-25T20:57:52.151Z,11.70
2022-11-25T21:00:24.185Z,11.73
2022-11-25T21:02:53.074Z,11.62
2022-11-25T21:05:20.117Z,11.54
2022-11-25T21:07:47.815Z,11.55
2022-11-25T21:10:27.756Z,11.63
2022-11-25T21:12:55.245Z,11.52
2022-11-25T21:15:23.943Z,11.42
2022-11-25T21:17:50.692Z,10.98
2022-11-25T21:20:18.368Z,11.23
2022-11-25T21:22:47.178Z,11.13
2022-11-25T21:25:15.975Z,11.14
2022-11-25T21:27:42.959Z,11.02
2022-11-25T21:30:27.233Z,11.08
2022-11-25T21:32:55.868Z,10.99
2022-11-25T21:35:24.642Z,10.76
2022-11-25T21:37:51.144Z,10.90
2022-11-25T21:40:31.298Z,10.63
2022-11-25T21:42:58.106Z,10.68
2022-11-25T21:45:24.623Z,10.78
2022-11-25T21:47:51.062Z,10.33
2022-11-25T21:50:19.501Z,10.59
2022-11-25T21:52:46.011Z,10.65
2022-11-25T21:55:13.678Z,10.51
2022-11-25T21:57:40.387Z,10.49
2022-11-25T22:00:19.871Z,10.40
2022-11-25T22:02:46.946Z,10.41
2022-11-25T22:05:17.873Z,10.35
2022-11-25T22:07:44.495Z,10.41
2022-11-25T22:10:12.727Z,10.47
2022-11-25T22:12:41.629Z,10.32
2022-11-25T22:15:28.677Z,10.42
2022-11-25T22:17:57.682Z,10.16
2022-11-25T22:20:40.388Z,10.01
2022-11-25T22:23:16.569Z,10.10
2022-11-25T22:25:43.247Z,10.04
2022-11-25T22:28:21.622Z,9.95
2022-11-25T22:30:50.442Z,10.04
2022-11-25T22:33:17.276Z,9.89
2022-11-25T22:35:43.736Z,9.99
2022-11-25T22:38:15.175Z,9.67
2022-11-25T22:40:43.224Z,9.73
2022-11-25T22:43:21.589Z,9.72
2022-11-25T22:45:48.112Z,9.84
2022-11-25T22:48:17.024Z,9.76
2022-11-25T22:50:45.529Z,9.59
2022-11-25T22:53:17.230Z,9.56
2022-11-25T22:55:44.792Z,9.66
2022-11-25T22:58:13.254Z,9.51
2022-11-25T23:00:42.694Z,9.55
2022-11-25T23:03:19.911Z,9.50
2022-11-25T23:05:46.618Z,9.48
2022-11-25T23:08:18.892Z,9.46
2022-11-25T23:10:45.473Z,9.51
2022-11-25T23:13:12.571Z,9.27
2022-11-25T23:15:41.821Z,9.25
2022-11-25T23:18:17.376Z,9.06
2022-11-25T23:20:43.901Z,8.88
2022-11-25T23:23:22.047Z,8.98
2022-11-25T23:25:49.060Z,8.99
2022-11-25T23:28:16.397Z,8.93
2022-11-25T23:30:52.287Z,9.06
2022-11-25T23:33:32.498Z,8.90
2022-11-25T23:36:02.461Z,8.95
2022-11-25T23:38:31.399Z,8.90
2022-11-25T23:40:57.869Z,8.92
2022-11-25T23:43:24.399Z,9.03
2022-11-25T23:45:56.081Z,9.18
2022-11-25T23:48:28.223Z,9.27
2022-11-25T23:50:55.980Z,9.24
2022-11-25T23:53:26.703Z,9.44
2022-11-25T23:55:53.487Z,9.36
2022-11-25T23:58:21.331Z,9.49
